createdAt,value
2022-08-08T00:19:27.613Z,3.33
2022-08-08T00:22:03.905Z,3.53
2022-08-08T00:24:42.307Z,3.77
2022-08-08T00:27:12.587Z,3.20
2022-08-08T00:32:56.517Z,3.30
2022-08-08T00:35:48.942Z,3.50
2022-08-08T00:38:51.772Z,3.13
2022-08-08T00:42:09.045Z,2.83
2022-08-08T00:45:27.238Z,3.40
2022-08-08T00:48:59.255Z,3.20
2022-08-08T00:52:39.003Z,3.27
2022-08-08T00:55:53.755Z,3.50
2022-08-08T00:58:59.868Z,3.90
2022-08-08T01:03:16.183Z,3.67
2022-08-08T01:12:39.218Z,4.50
2022-08-08T01:15:54.244Z,4.13
2022-08-08T01:19:42.134Z,4.10
2022-08-08T01:22:38.325Z,3.87
2022-08-08T01:25:40.578Z,4.37
2022-08-08T01:28:45.353Z,4.73
2022-08-08T01:32:15.235Z,4.73
2022-08-08T01:35:29.548Z,4.70
2022-08-08T01:50:48.895Z,5.30
2022-08-08T02:00:17.069Z,5.40
2022-08-08T02:12:57.285Z,5.70
2022-08-08T02:16:20.744Z,5.40
2022-08-08T02:20:08.410Z,5.40
2022-08-08T02:22:55.391Z,5.53
2022-08-08T02:25:32.922Z,7.20
2022-08-08T03:32:06.503Z,7.60
2022-08-08T03:34:35.196Z,7.80
2022-08-08T03:37:58.853Z,6.97
2022-08-08T03:40:03.778Z,7.33
2022-08-08T03:42:31.969Z,7.07
2022-08-08T03:44:59.577Z,7.50
2022-08-08T03:47:45.162Z,7.73
2022-08-08T03:50:19.773Z,8.10
2022-08-08T03:52:47.763Z,7.57
2022-08-08T03:55:55.107Z,8.37
2022-08-08T03:58:30.194Z,8.20
2022-08-08T04:01:01.599Z,7.33
2022-08-08T04:03:58.256Z,9.00
2022-08-08T04:06:31.058Z,8.57
2022-08-08T04:09:10.846Z,7.93
2022-08-08T04:11:48.599Z,8.30
2022-08-08T04:14:35.382Z,9.20
2022-08-08T04:17:15.647Z,8.23
2022-08-08T04:19:53.007Z,7.43
2022-08-08T04:22:24.159Z,8.60
2022-08-08T04:24:56.264Z,8.00
2022-08-08T04:28:02.534Z,8.60
2022-08-08T04:30:17.985Z,9.80
2022-08-08T04:32:50.043Z,9.47
2022-08-08T04:35:20.328Z,8.50
2022-08-08T04:37:50.999Z,8.60
2022-08-08T04:40:18.523Z,8.43
2022-08-08T04:42:56.082Z,8.20
2022-08-08T04:45:23.943Z,7.90
2022-08-08T04:47:53.427Z,8.60
2022-08-08T04:50:25.427Z,7.00
2022-08-08T04:52:58.559Z,8.17
2022-08-08T04:55:37.675Z,8.63
2022-08-08T04:58:17.537Z,9.13
2022-08-08T05:00:45.032Z,7.57
2022-08-08T05:03:18.851Z,7.37
2022-08-08T05:06:01.499Z,7.87
2022-08-08T05:08:40.894Z,6.80
2022-08-08T05:11:10.257Z,6.90
2022-08-08T05:13:54.831Z,8.20
2022-08-08T05:16:50.925Z,7.63
2022-08-08T05:20:11.161Z,8.07
2022-08-08T05:22:02.188Z,6.80
2022-08-08T05:24:30.834Z,7.77
2022-08-08T05:26:58.440Z,6.57
2022-08-08T05:29:29.155Z,6.60
2022-08-08T05:32:04.641Z,6.77
2022-08-08T05:34:53.433Z,6.13
2022-08-08T05:37:39.431Z,7.00
2022-08-08T05:40:14.737Z,7.67
2022-08-08T05:42:46.319Z,6.97
2022-08-08T05:45:25.565Z,6.93
2022-08-08T05:48:01.539Z,7.23
2022-08-08T05:50:36.733Z,7.00
2022-08-08T05:53:54.060Z,8.50
2022-08-08T05:56:09.510Z,7.10
2022-08-08T05:58:57.131Z,7.10
2022-08-08T06:01:55.387Z,7.27
2022-08-08T06:04:24.156Z,6.40
2022-08-08T06:07:00.215Z,6.60
2022-08-08T06:09:59.382Z,5.90
2022-08-08T06:12:30.323Z,7.47
2022-08-08T06:15:02.794Z,6.60
2022-08-08T06:17:51.035Z,6.20
2022-08-08T06:20:23.107Z,6.40
2022-08-08T06:22:53.530Z,5.90
2022-08-08T06:26:34.663Z,5.50
2022-08-08T06:28:29.687Z,6.07
2022-08-08T06:31:03.407Z,5.60
2022-08-08T06:34:27.097Z,5.90
2022-08-08T06:36:41.869Z,6.33
2022-08-08T06:39:22.416Z,7.00
2022-08-08T06:41:58.849Z,5.13
2022-08-08T06:44:30.400Z,5.27
2022-08-08T06:46:58.995Z,5.60
2022-08-08T06:49:54.879Z,5.77
2022-08-08T06:52:18.019Z,5.00
2022-08-08T06:54:48.698Z,6.07
2022-08-08T06:57:16.203Z,6.20
2022-08-08T07:00:10.700Z,5.77
2022-08-08T07:02:34.664Z,5.83
2022-08-08T07:05:20.431Z,5.03
2022-08-08T07:08:23.097Z,5.47
2022-08-08T07:10:57.264Z,5.87
2022-08-08T07:13:37.414Z,6.27
2022-08-08T07:16:35.162Z,5.23
2022-08-08T07:20:00.330Z,5.57
2022-08-08T07:22:43.521Z,6.00
2022-08-08T07:25:17.196Z,4.87
2022-08-08T07:28:02.523Z,5.37
2022-08-08T07:30:35.447Z,4.40
2022-08-08T07:33:03.168Z,5.67
2022-08-08T07:35:30.776Z,5.93
2022-08-08T07:38:04.795Z,5.07
2022-08-08T07:40:38.346Z,5.70
2022-08-08T07:43:11.427Z,5.10
2022-08-08T07:46:05.506Z,6.13
2022-08-08T07:48:29.704Z,5.30
2022-08-08T07:51:01.808Z,4.80
2022-08-08T07:54:02.594Z,5.50
2022-08-08T07:56:41.507Z,5.53
2022-08-08T07:59:14.895Z,5.73
2022-08-08T08:02:36.802Z,5.40
2022-08-08T08:04:46.712Z,4.93
2022-08-08T08:07:17.221Z,5.50
2022-08-08T08:09:44.818Z,5.00
2022-08-08T08:12:31.924Z,4.63
2022-08-08T08:15:07.382Z,3.93
2022-08-08T08:17:48.909Z,4.22
2022-08-08T08:20:30.403Z,3.85
2022-08-08T08:22:57.701Z,4.65
2022-08-08T08:25:43.720Z,4.10
2022-08-08T08:28:21.599Z,4.10
2022-08-08T08:30:51.917Z,3.33
2022-08-08T08:33:20.388Z,4.00
2022-08-08T08:36:18.987Z,3.83
2022-08-08T08:38:35.932Z,3.85
2022-08-08T08:41:06.859Z,3.83
2022-08-08T08:43:45.061Z,3.78
2022-08-08T08:46:17.645Z,3.65
2022-08-08T08:48:49.232Z,4.20
2022-08-08T08:51:17.826Z,3.67
2022-08-08T08:53:56.589Z,3.30
2022-08-08T08:56:28.633Z,4.00
2022-08-08T08:58:58.032Z,3.70
2022-08-08T09:01:32.165Z,3.88
2022-08-08T09:04:10.090Z,3.53
2022-08-08T09:06:58.881Z,3.47
2022-08-08T09:09:40.145Z,3.92
2022-08-08T09:12:17.676Z,3.20
2022-08-08T09:14:48.734Z,3.30
2022-08-08T09:17:19.632Z,3.45
2022-08-08T09:21:57.825Z,3.17
2022-08-08T09:22:47.237Z,2.70
2022-08-08T09:25:15.362Z,2.92
2022-08-08T09:27:58.182Z,2.67
2022-08-08T09:30:28.033Z,3.42
2022-08-08T09:33:12.926Z,3.38
2022-08-08T09:35:49.910Z,2.88
2022-08-08T09:38:52.869Z,2.88
2022-08-08T09:41:54.814Z,3.10
2022-08-08T09:45:15.585Z,2.72
2022-08-08T09:48:09.448Z,2.80
2022-08-08T09:50:36.869Z,3.15
2022-08-08T09:53:26.636Z,2.58
2022-08-08T09:56:07.111Z,2.58
2022-08-08T09:58:44.718Z,3.10
2022-08-08T10:01:58.125Z,2.92
2022-08-08T10:04:02.218Z,2.10
2022-08-08T10:06:32.362Z,2.45
2022-08-08T10:09:00.111Z,2.10
2022-08-08T10:12:26.529Z,2.40
2022-08-08T10:14:28.667Z,2.15
2022-08-08T10:17:57.322Z,2.63
2022-08-08T10:20:01.568Z,1.70
2022-08-08T10:22:33.559Z,2.50
2022-08-08T10:25:05.750Z,2.30
2022-08-08T10:27:43.714Z,2.45
2022-08-08T10:30:16.456Z,2.72
2022-08-08T10:33:05.204Z,2.45
2022-08-08T10:36:08.163Z,2.30
2022-08-08T10:38:20.602Z,2.13
2022-08-08T10:40:53.196Z,1.90
2022-08-08T10:43:22.884Z,1.73
2022-08-08T10:45:55.819Z,2.08
2022-08-08T10:48:37.385Z,2.08
2022-08-08T10:51:21.101Z,2.15
2022-08-08T10:53:57.541Z,2.10
2022-08-08T10:56:27.328Z,1.90
2022-08-08T10:59:09.523Z,1.85
2022-08-08T11:01:39.434Z,1.40
2022-08-08T11:04:10.819Z,1.90
2022-08-08T11:06:42.017Z,1.98
2022-08-08T11:09:21.223Z,1.63
2022-08-08T11:12:05.478Z,1.70
2022-08-08T11:15:02.939Z,1.80
2022-08-08T11:17:58.688Z,1.48
2022-08-08T11:20:28.048Z,1.60
2022-08-08T11:23:05.757Z,1.45
2022-08-08T11:25:52.260Z,1.95
2022-08-08T11:28:34.538Z,1.88
2022-08-08T11:31:09.461Z,1.52
2022-08-08T11:33:51.143Z,1.60
2022-08-08T11:36:22.071Z,1.65
2022-08-08T11:38:53.931Z,1.60
2022-08-08T11:41:23.312Z,1.65
2022-08-08T11:43:53.787Z,1.38
2022-08-08T11:46:24.411Z,1.40
2022-08-08T11:48:52.830Z,1.60
2022-08-08T11:51:38.185Z,1.65
2022-08-08T11:54:27.212Z,1.73
2022-08-08T11:56:57.968Z,1.30
2022-08-08T11:59:57.793Z,1.77
2022-08-08T12:02:32.202Z,1.17
2022-08-08T12:05:12.471Z,1.38
2022-08-08T12:07:56.765Z,1.30
2022-08-08T12:10:34.026Z,1.30
2022-08-08T12:13:09.805Z,1.73
2022-08-08T12:15:41.743Z,1.17
2022-08-08T12:18:14.801Z,1.20
2022-08-08T12:20:47.234Z,1.15
2022-08-08T12:23:30.649Z,1.38
2022-08-08T12:26:50.049Z,1.25
2022-08-08T12:29:42.312Z,1.60
2022-08-08T12:32:19.603Z,1.30
2022-08-08T12:35:13.646Z,1.70
2022-08-08T12:38:01.082Z,1.40
2022-08-08T12:40:56.317Z,1.45
2022-08-08T12:43:43.556Z,1.33
2022-08-08T12:46:26.147Z,1.42
2022-08-08T12:49:25.450Z,1.65
2022-08-08T12:51:58.516Z,1.02
2022-08-08T12:54:33.404Z,0.88
2022-08-08T12:57:24.294Z,1.30
2022-08-08T13:00:05.932Z,1.50
2022-08-08T13:02:51.153Z,1.88
2022-08-08T13:05:26.539Z,1.30
2022-08-08T13:08:20.159Z,1.10
2022-08-08T13:10:58.281Z,1.40
2022-08-08T13:13:35.065Z,1.27
2022-08-08T13:16:35.575Z,1.30
2022-08-08T13:19:13.979Z,1.48
2022-08-08T13:21:53.668Z,1.33
2022-08-08T13:24:40.812Z,1.42
2022-08-08T13:27:19.124Z,1.65
2022-08-08T13:30:07.121Z,1.20
2022-08-08T13:32:36.541Z,1.33
2022-08-08T13:35:11.781Z,1.30
2022-08-08T13:38:07.121Z,0.95
2022-08-08T13:40:35.604Z,1.25
2022-08-08T13:43:03.935Z,1.63
2022-08-08T13:45:31.511Z,1.80
2022-08-08T13:48:02.820Z,1.90
2022-08-08T13:50:49.435Z,1.52
2022-08-08T13:53:34.076Z,1.80
2022-08-08T13:56:11.299Z,1.80
2022-08-08T13:58:57.399Z,2.08
2022-08-08T14:01:33.074Z,1.98
2022-08-08T14:04:22.333Z,1.88
2022-08-08T14:06:58.863Z,1.65
2022-08-08T14:10:02.905Z,1.75
2022-08-08T14:12:26.301Z,1.85
2022-08-08T14:14:55.342Z,1.55
2022-08-08T14:17:58.471Z,1.70
2022-08-08T14:20:14.820Z,1.80
2022-08-08T14:23:10.070Z,2.50
2022-08-08T14:25:54.021Z,1.80
2022-08-08T14:28:29.240Z,2.23
2022-08-08T14:31:09.307Z,1.90
2022-08-08T14:33:37.101Z,2.13
2022-08-08T14:36:06.709Z,2.07
2022-08-08T14:38:52.455Z,2.10
2022-08-08T14:41:45.305Z,2.47
2022-08-08T14:44:21.020Z,1.70
2022-08-08T14:47:01.159Z,2.20
2022-08-08T14:49:37.810Z,2.13
2022-08-08T14:52:26.130Z,2.30
2022-08-08T14:54:54.486Z,2.07
2022-08-08T14:58:00.624Z,2.00
2022-08-08T15:00:10.038Z,2.40
2022-08-08T15:02:58.868Z,2.27
2022-08-08T15:05:34.182Z,2.43
2022-08-08T15:08:22.177Z,2.40
2022-08-08T15:10:57.755Z,2.57
2022-08-08T15:13:25.217Z,2.17
2022-08-08T15:16:03.915Z,5.20
2022-08-08T15:18:31.545Z,2.03
2022-08-08T15:20:58.694Z,2.97
2022-08-08T15:23:25.737Z,2.07
2022-08-08T15:26:06.078Z,2.50
2022-08-08T15:28:36.438Z,2.47
2022-08-08T15:31:03.697Z,2.23
2022-08-08T15:33:38.739Z,2.53
2022-08-08T15:36:21.053Z,2.20
2022-08-08T15:38:59.889Z,2.30
2022-08-08T15:41:29.860Z,2.53
2022-08-08T15:44:13.368Z,2.30
2022-08-08T15:46:45.626Z,2.30
2022-08-08T15:49:20.684Z,2.37
2022-08-08T15:51:55.324Z,2.60
2022-08-08T15:54:38.996Z,2.30
2022-08-08T15:57:08.872Z,2.37
2022-08-08T16:00:25.819Z,2.40
2022-08-08T16:02:30.916Z,2.57
2022-08-08T16:05:01.967Z,2.50
2022-08-08T16:07:39.552Z,2.30
2022-08-08T16:13:08.806Z,2.37
2022-08-08T16:13:30.575Z,2.47
2022-08-08T16:15:58.597Z,1.87
2022-08-08T16:18:28.133Z,2.43
2022-08-08T16:21:00.318Z,2.97
2022-08-08T16:23:31.795Z,2.63
2022-08-08T16:26:05.081Z,2.83
2022-08-08T16:28:41.578Z,2.57
2022-08-08T16:31:09.584Z,2.67
2022-08-08T16:33:39.305Z,2.40
2022-08-08T16:36:15.871Z,2.63
2022-08-08T16:38:53.670Z,2.40
2022-08-08T16:41:24.057Z,2.47
2022-08-08T16:43:53.034Z,2.70
2022-08-08T16:46:42.843Z,2.80
2022-08-08T16:49:09.345Z,2.90
2022-08-08T16:55:04.906Z,2.43
2022-08-08T16:55:20.752Z,2.90
2022-08-08T16:58:13.252Z,3.07
2022-08-08T17:00:08.872Z,2.30
2022-08-08T17:02:39.351Z,3.13
2022-08-08T17:05:08.591Z,3.60
2022-08-08T17:07:37.605Z,2.80
2022-08-08T17:10:08.920Z,3.40
2022-08-08T17:12:37.898Z,3.33
2022-08-08T17:15:17.933Z,3.40
2022-08-08T17:18:02.588Z,4.40
2022-08-08T17:20:32.106Z,2.73
2022-08-08T17:23:17.564Z,2.70
2022-08-08T17:25:52.487Z,3.83
2022-08-08T17:28:34.538Z,4.10
2022-08-08T17:31:15.029Z,3.40
2022-08-08T17:34:37.525Z,2.90
2022-08-08T17:36:44.185Z,2.60
2022-08-08T17:40:03.914Z,2.70
2022-08-08T17:42:13.336Z,2.27
2022-08-08T17:44:44.271Z,2.83
2022-08-08T17:47:24.062Z,4.20
2022-08-08T17:50:00.665Z,3.90
2022-08-08T17:52:30.072Z,4.23
2022-08-08T17:54:57.862Z,2.70
2022-08-08T17:57:28.803Z,2.53
2022-08-08T18:00:03.739Z,3.97
2022-08-08T18:02:31.931Z,2.80
2022-08-08T18:05:04.687Z,3.63
2022-08-08T18:08:02.573Z,3.97
2022-08-08T18:10:31.213Z,4.30
2022-08-08T18:12:59.162Z,6.37
2022-08-08T18:15:31.345Z,3.40
2022-08-08T18:18:09.724Z,3.27
2022-08-08T18:20:55.090Z,3.70
2022-08-08T18:23:26.849Z,2.87
2022-08-08T18:25:53.896Z,3.00
2022-08-08T18:28:23.597Z,3.23
2022-08-08T18:30:53.287Z,2.63
2022-08-08T18:34:10.632Z,3.33
2022-08-08T18:36:18.727Z,2.90
2022-08-08T18:38:49.827Z,2.70
2022-08-08T18:41:17.001Z,2.70
2022-08-08T18:43:46.576Z,2.77
2022-08-08T18:46:55.111Z,2.80
2022-08-08T18:49:01.040Z,2.50
2022-08-08T18:51:52.483Z,2.93
2022-08-08T18:54:22.395Z,2.50
2022-08-08T18:56:55.941Z,2.83
2022-08-08T18:59:23.685Z,3.43
2022-08-08T19:02:28.135Z,2.57
2022-08-08T19:04:38.531Z,2.90
2022-08-08T19:07:05.853Z,3.07
2022-08-08T19:09:48.918Z,3.13
2022-08-08T19:12:26.333Z,2.67
2022-08-08T19:14:56.019Z,3.60
2022-08-08T19:17:29.216Z,3.70
2022-08-08T19:20:11.552Z,2.60
2022-08-08T19:22:38.723Z,2.87
2022-08-08T19:25:30.276Z,2.77
2022-08-08T19:28:00.060Z,2.93
2022-08-08T19:30:28.051Z,2.80
2022-08-08T19:32:59.051Z,3.10
2022-08-08T19:35:45.092Z,2.90
2022-08-08T19:38:17.299Z,2.93
2022-08-08T19:40:54.591Z,3.40
2022-08-08T19:43:28.135Z,2.83
2022-08-08T19:45:59.703Z,2.80
2022-08-08T19:48:31.021Z,2.80
2022-08-08T19:51:01.061Z,3.00
2022-08-08T19:53:52.588Z,3.27
2022-08-08T19:56:25.489Z,3.10
2022-08-08T19:59:03.612Z,3.20
2022-08-08T20:02:01.784Z,3.37
2022-08-08T20:04:23.625Z,3.40
2022-08-08T20:06:51.155Z,2.63
2022-08-08T20:09:23.186Z,2.80
2022-08-08T20:11:52.137Z,3.07
2022-08-08T20:14:33.810Z,2.67
2022-08-08T20:17:02.984Z,3.40
2022-08-08T20:19:34.160Z,2.67
2022-08-08T20:22:05.037Z,2.23
2022-08-08T20:24:40.843Z,2.70
2022-08-08T20:27:09.222Z,3.00
2022-08-08T20:29:55.357Z,2.43
2022-08-08T20:32:26.898Z,2.80
2022-08-08T20:35:01.397Z,2.57
2022-08-08T20:37:47.186Z,3.03
2022-08-08T20:40:18.026Z,2.20
2022-08-08T20:43:01.338Z,2.30
2022-08-08T20:45:54.583Z,1.93
2022-08-08T20:48:21.491Z,3.00
2022-08-08T20:50:53.373Z,2.30
2022-08-08T20:53:32.209Z,2.77
2022-08-08T20:56:11.741Z,2.40
2022-08-08T20:58:47.806Z,1.70
2022-08-08T21:01:19.872Z,2.27
2022-08-08T21:03:55.121Z,2.20
2022-08-08T21:06:23.279Z,2.40
2022-08-08T21:09:10.325Z,2.17
2022-08-08T21:11:50.875Z,1.70
2022-08-08T21:14:30.545Z,2.00
2022-08-08T21:17:05.943Z,2.13
2022-08-08T21:19:45.284Z,1.90
2022-08-08T21:22:14.486Z,1.87
2022-08-08T21:24:53.457Z,2.50
2022-08-08T21:27:38.890Z,1.80
2022-08-08T21:30:18.839Z,1.90
2022-08-08T21:32:52.134Z,1.70
2022-08-08T21:36:18.001Z,2.00
2022-08-08T21:38:16.078Z,1.93
2022-08-08T21:40:54.994Z,1.83
2022-08-08T21:43:33.185Z,1.50
2022-08-08T21:48:07.243Z,1.93
2022-08-08T21:48:54.241Z,2.43
2022-08-08T21:54:18.118Z,2.23
2022-08-08T21:54:35.682Z,2.07
2022-08-08T21:57:06.242Z,1.83
2022-08-08T22:00:01.699Z,2.23
2022-08-08T22:02:23.410Z,2.03
2022-08-08T22:04:55.988Z,2.10
2022-08-08T22:07:39.523Z,1.93
2022-08-08T22:10:09.373Z,1.60
2022-08-08T22:12:37.484Z,1.97
2022-08-08T22:15:05.662Z,1.60
2022-08-08T22:17:45.195Z,1.83
2022-08-08T22:20:18.807Z,1.83
2022-08-08T22:22:53.546Z,1.43
2022-08-08T22:25:25.331Z,2.37
2022-08-08T22:28:03.022Z,2.10
2022-08-08T22:30:42.521Z,2.00
2022-08-08T22:33:22.106Z,1.87
2022-08-08T22:36:05.543Z,1.90
2022-08-08T22:38:48.031Z,2.20
2022-08-08T22:41:21.396Z,1.77
2022-08-08T22:44:01.839Z,1.53
2022-08-08T22:46:33.068Z,1.60
2022-08-08T22:49:00.641Z,1.60
2022-08-08T22:51:29.086Z,1.93
2022-08-08T22:54:32.565Z,1.93
2022-08-08T22:56:43.463Z,1.53
2022-08-08T22:59:14.468Z,2.27
2022-08-08T23:02:03.620Z,1.90
2022-08-08T23:04:32.485Z,2.10
2022-08-08T23:07:03.063Z,2.40
2022-08-08T23:09:31.252Z,1.80
2022-08-08T23:12:28.650Z,1.80
2022-08-08T23:14:56.350Z,2.10
2022-08-08T23:17:46.847Z,2.43
2022-08-08T23:20:21.850Z,2.27
2022-08-08T23:22:55.229Z,1.90
2022-08-08T23:25:23.505Z,2.20
2022-08-08T23:27:54.373Z,2.07
2022-08-08T23:30:23.804Z,2.23
2022-08-08T23:32:51.408Z,2.80
2022-08-08T23:35:18.766Z,2.03
2022-08-08T23:38:02.277Z,2.40
2022-08-08T23:40:30.861Z,1.90
2022-08-08T23:43:04.309Z,1.80
2022-08-08T23:49:01.956Z,2.30
2022-08-08T23:49:07.546Z,1.97
2022-08-08T23:51:12.858Z,2.20
2022-08-08T23:54:04.902Z,2.40
2022-08-08T23:56:35.758Z,2.07
2022-08-08T23:59:04.802Z,2.03
